createdAt,value
2024-04-14T00:00:10.723Z,49.32
2024-04-14T00:01:00.942Z,54.24
2024-04-14T00:01:50.892Z,53.31
2024-04-14T00:02:41.169Z,51.17
2024-04-14T00:03:31.241Z,50.24
2024-04-14T00:04:21.315Z,46.97
2024-04-14T00:05:11.309Z,51.25
2024-04-14T00:06:01.358Z,50.97
2024-04-14T00:06:51.445Z,52.20
2024-04-14T00:07:41.419Z,48.82
2024-04-14T00:08:31.455Z,49.54
2024-04-14T00:09:21.565Z,50.22
2024-04-14T00:10:11.596Z,47.16
2024-04-14T00:11:01.738Z,49.51
2024-04-14T00:11:51.743Z,51.46
2024-04-14T00:12:41.819Z,54.43
2024-04-14T00:13:31.836Z,55.96
2024-04-14T00:14:21.876Z,50.38
2024-04-14T00:15:11.914Z,50.43
2024-04-14T00:16:02.058Z,51.77
2024-04-14T00:16:52.085Z,56.13
2024-04-14T00:17:42.150Z,53.63
2024-04-14T00:18:32.566Z,54.93
2024-04-14T00:19:22.211Z,51.68
2024-04-14T00:20:12.230Z,54.25
2024-04-14T00:21:02.299Z,56.44
2024-04-14T00:21:52.726Z,53.59
2024-04-14T00:22:42.447Z,50.24
2024-04-14T00:23:32.486Z,48.47
2024-04-14T00:24:22.599Z,45.17
2024-04-14T00:25:12.610Z,45.58
2024-04-14T00:26:02.673Z,47.92
2024-04-14T00:26:52.730Z,46.61
2024-04-14T00:27:42.810Z,46.67
2024-04-14T00:28:32.845Z,48.49
2024-04-14T00:29:22.924Z,49.61
2024-04-14T00:30:12.965Z,48.71
2024-04-14T00:31:03.330Z,46.59
2024-04-14T00:31:53.375Z,48.19
2024-04-14T00:32:43.445Z,52.85
2024-04-14T00:33:33.494Z,46.06
2024-04-14T00:34:23.517Z,45.16
2024-04-14T00:35:13.549Z,43.99
2024-04-14T00:36:04.714Z,44.88
2024-04-14T00:36:53.753Z,50.86
2024-04-14T00:37:43.744Z,46.97
2024-04-14T00:38:33.772Z,43.57
2024-04-14T00:39:23.855Z,41.33
2024-04-14T00:40:13.867Z,42.91
2024-04-14T00:41:03.924Z,42.73
2024-04-14T00:41:53.964Z,40.79
2024-04-14T00:42:44.060Z,42.74
2024-04-14T00:43:34.051Z,44.67
2024-04-14T00:44:24.092Z,44.23
2024-04-14T00:45:14.142Z,39.72
2024-04-14T00:46:04.299Z,43.46
2024-04-14T00:46:54.274Z,43.73
2024-04-14T00:47:44.367Z,45.27
2024-04-14T00:48:34.526Z,44.49
2024-04-14T00:49:24.613Z,51.99
2024-04-14T00:50:14.483Z,49.57
2024-04-14T00:51:04.521Z,46.68
2024-04-14T00:51:54.698Z,42.68
2024-04-14T00:52:44.808Z,43.19
2024-04-14T00:53:34.870Z,42.11
2024-04-14T00:54:24.908Z,44.84
2024-04-14T00:55:14.921Z,44.29
2024-04-14T00:56:04.955Z,43.91
2024-04-14T00:56:55.048Z,44.09
2024-04-14T00:57:45.093Z,44.24
2024-04-14T00:58:35.108Z,44.65
2024-04-14T00:59:25.188Z,44.51
2024-04-14T01:00:15.227Z,43.46
2024-04-14T01:01:05.349Z,40.68
2024-04-14T01:01:55.318Z,42.51
2024-04-14T01:02:45.363Z,45.33
2024-04-14T01:03:35.521Z,44.81
2024-04-14T01:04:25.553Z,39.66
2024-04-14T01:05:15.521Z,43.32
2024-04-14T01:06:05.571Z,44.99
2024-04-14T01:06:55.751Z,44.39
2024-04-14T01:07:45.685Z,44.82
2024-04-14T01:08:35.792Z,45.03
2024-04-14T01:09:25.910Z,45.41
2024-04-14T01:10:15.868Z,43.56
2024-04-14T01:11:05.970Z,43.29
2024-04-14T01:11:55.990Z,45.96
2024-04-14T01:12:46.044Z,44.55
2024-04-14T01:13:36.091Z,41.75
2024-04-14T01:14:26.131Z,43.92
2024-04-14T01:15:16.194Z,43.89
2024-04-14T01:16:06.322Z,42.92
2024-04-14T01:16:56.357Z,42.66
2024-04-14T01:17:46.542Z,45.37
2024-04-14T01:18:36.545Z,42.47
2024-04-14T01:19:26.482Z,39.17
2024-04-14T01:20:16.535Z,38.95
2024-04-14T01:21:06.591Z,40.40
2024-04-14T01:21:56.890Z,39.61
2024-04-14T01:22:46.885Z,42.08
2024-04-14T01:23:36.924Z,42.29
2024-04-14T01:24:27.317Z,40.74
2024-04-14T01:25:17.339Z,40.43
2024-04-14T01:26:07.394Z,45.36
2024-04-14T01:26:57.438Z,39.01
2024-04-14T01:27:47.564Z,41.37
2024-04-14T01:28:37.534Z,42.63
2024-04-14T01:29:27.564Z,40.95
2024-04-14T01:30:17.581Z,44.08
2024-04-14T01:31:07.667Z,41.93
2024-04-14T01:31:57.736Z,43.22
2024-04-14T01:32:47.831Z,43.39
2024-04-14T01:33:37.888Z,44.99
2024-04-14T01:34:27.845Z,42.51
2024-04-14T01:35:17.900Z,43.86
2024-04-14T01:36:07.929Z,42.65
2024-04-14T01:36:58.055Z,44.92
2024-04-14T01:37:48.157Z,44.62
2024-04-14T01:38:38.184Z,44.80
2024-04-14T01:39:28.309Z,44.36
2024-04-14T01:40:18.347Z,45.16
2024-04-14T01:41:08.386Z,43.12
2024-04-14T01:41:58.433Z,44.24
2024-04-14T01:42:48.508Z,48.38
2024-04-14T01:43:38.497Z,43.23
2024-04-14T01:44:28.634Z,43.91
2024-04-14T01:45:18.665Z,46.26
2024-04-14T01:46:08.711Z,43.98
2024-04-14T01:46:58.773Z,44.59
2024-04-14T01:47:48.947Z,43.85
2024-04-14T01:48:38.991Z,44.43
2024-04-14T01:49:28.971Z,42.29
2024-04-14T01:50:18.940Z,46.84
2024-04-14T01:51:09.035Z,43.95
2024-04-14T01:51:59.146Z,43.55
2024-04-14T01:52:49.123Z,41.25
2024-04-14T01:53:39.159Z,44.41
2024-04-14T01:54:29.262Z,45.22
2024-04-14T01:55:19.286Z,47.29
2024-04-14T01:56:09.335Z,46.06
2024-04-14T01:56:59.402Z,51.51
2024-04-14T01:57:49.462Z,45.54
2024-04-14T01:58:39.473Z,44.68
2024-04-14T01:59:29.552Z,44.95
2024-04-14T02:00:19.847Z,47.27
2024-04-14T02:01:10.031Z,48.77
2024-04-14T02:02:00.035Z,45.42
2024-04-14T02:02:50.062Z,47.08
2024-04-14T02:03:40.146Z,49.14
2024-04-14T02:04:30.210Z,44.16
2024-04-14T02:05:20.185Z,46.98
2024-04-14T02:06:10.229Z,42.72
2024-04-14T02:07:00.452Z,45.05
2024-04-14T02:07:50.409Z,42.13
2024-04-14T02:08:40.443Z,47.25
2024-04-14T02:09:30.480Z,42.35
2024-04-14T02:10:20.515Z,47.34
2024-04-14T02:11:10.614Z,42.85
2024-04-14T02:12:00.601Z,42.97
2024-04-14T02:12:50.705Z,43.13
2024-04-14T02:13:40.723Z,44.28
2024-04-14T02:14:30.787Z,42.61
2024-04-14T02:15:20.812Z,39.39
2024-04-14T02:16:10.864Z,40.77
2024-04-14T02:17:00.912Z,38.37
2024-04-14T02:17:51.021Z,39.02
2024-04-14T02:18:41.066Z,36.15
2024-04-14T02:19:31.047Z,39.79
2024-04-14T02:20:21.114Z,38.32
2024-04-14T02:21:11.190Z,37.98
2024-04-14T02:22:01.250Z,40.36
2024-04-14T02:22:51.281Z,37.54
2024-04-14T02:23:41.326Z,34.54
2024-04-14T02:24:31.450Z,34.26
2024-04-14T02:25:21.459Z,36.70
2024-04-14T02:26:11.544Z,36.42
2024-04-14T02:27:01.616Z,33.71
2024-04-14T02:27:51.680Z,35.20
2024-04-14T02:28:41.716Z,33.04
2024-04-14T02:29:31.748Z,33.79
2024-04-14T02:30:21.811Z,35.30
2024-04-14T02:31:11.840Z,34.22
2024-04-14T02:32:01.926Z,31.85
2024-04-14T02:32:51.960Z,31.35
2024-04-14T02:33:42.093Z,35.10
2024-04-14T02:34:32.066Z,32.99
2024-04-14T02:35:22.108Z,32.08
2024-04-14T02:36:12.222Z,33.44
2024-04-14T02:37:02.869Z,32.55
2024-04-14T02:37:52.276Z,28.99
2024-04-14T02:38:42.308Z,30.85
2024-04-14T02:39:32.397Z,35.53
2024-04-14T02:40:22.455Z,34.30
2024-04-14T02:41:12.532Z,32.97
2024-04-14T02:42:02.628Z,32.38
2024-04-14T02:42:53.092Z,29.44
2024-04-14T02:43:43.004Z,33.74
2024-04-14T02:44:33.018Z,31.13
2024-04-14T02:45:23.093Z,28.82
2024-04-14T02:46:13.115Z,30.68
2024-04-14T02:47:03.158Z,27.53
2024-04-14T02:47:53.270Z,27.47
2024-04-14T02:48:43.393Z,29.48
2024-04-14T02:49:33.394Z,30.75
2024-04-14T02:50:23.414Z,26.53
2024-04-14T02:51:13.471Z,27.02
2024-04-14T02:52:03.539Z,30.39
2024-04-14T02:52:53.581Z,28.47
2024-04-14T02:53:43.607Z,27.13
2024-04-14T02:54:33.650Z,28.96
2024-04-14T02:55:23.689Z,25.63
2024-04-14T02:56:13.783Z,27.26
2024-04-14T02:57:03.830Z,30.95
2024-04-14T02:57:54.008Z,29.25
2024-04-14T02:58:43.932Z,30.29
2024-04-14T02:59:33.993Z,27.22
2024-04-14T03:00:24.084Z,28.67
2024-04-14T03:01:14.180Z,26.70
2024-04-14T03:02:04.272Z,30.32
2024-04-14T03:02:54.251Z,26.43
2024-04-14T03:03:44.309Z,25.47
2024-04-14T03:04:34.577Z,30.89
2024-04-14T03:05:24.366Z,28.01
2024-04-14T03:06:14.443Z,29.57
2024-04-14T03:07:04.523Z,28.00
2024-04-14T03:07:54.547Z,28.30
2024-04-14T03:08:44.596Z,33.95
2024-04-14T03:09:34.675Z,30.94
2024-04-14T03:10:24.679Z,28.61
2024-04-14T03:11:14.754Z,28.35
2024-04-14T03:12:04.791Z,29.33
2024-04-14T03:12:54.951Z,29.20
2024-04-14T03:13:44.890Z,32.93
2024-04-14T03:14:34.952Z,27.22
2024-04-14T03:15:25.029Z,28.48
2024-04-14T03:16:15.109Z,29.42
2024-04-14T03:17:05.110Z,26.01
2024-04-14T03:17:55.175Z,31.30
2024-04-14T03:18:45.227Z,30.67
2024-04-14T03:19:35.270Z,27.48
2024-04-14T03:20:25.303Z,25.00
2024-04-14T03:21:15.369Z,31.17
2024-04-14T03:22:05.456Z,32.40
2024-04-14T03:22:55.486Z,30.55
2024-04-14T03:23:45.510Z,31.29
2024-04-14T03:24:35.643Z,30.19
2024-04-14T03:25:25.625Z,28.76
2024-04-14T03:26:15.674Z,29.63
2024-04-14T03:27:05.733Z,26.99
2024-04-14T03:27:55.915Z,29.36
2024-04-14T03:28:45.815Z,33.39
2024-04-14T03:29:35.904Z,25.07
2024-04-14T03:30:25.994Z,31.20
2024-04-14T03:31:16.144Z,34.99
2024-04-14T03:32:06.087Z,35.76
2024-04-14T03:32:56.198Z,30.90
2024-04-14T03:33:46.228Z,30.34
2024-04-14T03:34:36.240Z,31.99
2024-04-14T03:35:26.304Z,29.53
2024-04-14T03:36:16.384Z,26.59
2024-04-14T03:37:06.505Z,26.74
2024-04-14T03:37:56.491Z,29.32
2024-04-14T03:38:46.540Z,25.12
2024-04-14T03:39:36.602Z,29.97
2024-04-14T03:40:26.646Z,27.93
2024-04-14T03:41:16.657Z,28.16
2024-04-14T03:42:06.699Z,27.04
2024-04-14T03:42:56.903Z,26.54
2024-04-14T03:43:46.840Z,26.51
2024-04-14T03:44:36.876Z,27.88
2024-04-14T03:45:26.928Z,25.08
2024-04-14T03:46:16.982Z,29.41
2024-04-14T03:47:07.027Z,25.00
2024-04-14T03:47:57.095Z,27.27
2024-04-14T03:48:47.354Z,27.29
2024-04-14T03:49:37.189Z,29.52
2024-04-14T03:50:27.227Z,27.26
2024-04-14T03:51:17.312Z,28.60
2024-04-14T03:52:07.342Z,29.66
2024-04-14T03:52:57.382Z,30.41
2024-04-14T03:53:47.425Z,27.75
2024-04-14T03:54:37.506Z,28.04
2024-04-14T03:55:27.513Z,28.70
2024-04-14T03:56:17.594Z,28.53
2024-04-14T03:57:07.668Z,29.85
2024-04-14T03:57:57.788Z,30.02
2024-04-14T03:58:47.749Z,30.96
2024-04-14T03:59:37.784Z,30.37
2024-04-14T04:00:27.859Z,30.58
2024-04-14T04:01:17.928Z,31.12
2024-04-14T04:02:07.997Z,31.78
2024-04-14T04:02:57.988Z,34.47
2024-04-14T04:03:48.135Z,31.72
2024-04-14T04:04:38.056Z,33.66
2024-04-14T04:05:28.173Z,31.27
2024-04-14T04:06:18.245Z,26.82
2024-04-14T04:07:08.308Z,32.81
2024-04-14T04:07:58.366Z,31.57
2024-04-14T04:08:48.431Z,29.68
2024-04-14T04:09:38.498Z,25.05
2024-04-14T04:10:28.537Z,28.91
2024-04-14T04:11:18.665Z,29.89
2024-04-14T04:12:08.675Z,26.87
2024-04-14T04:12:58.788Z,25.00
2024-04-14T04:13:48.781Z,29.22
2024-04-14T04:14:39.075Z,34.12
2024-04-14T04:15:29.156Z,30.23
2024-04-14T04:16:19.160Z,29.45
2024-04-14T04:17:09.241Z,28.02
2024-04-14T04:17:59.392Z,29.71
2024-04-14T04:18:49.396Z,31.75
2024-04-14T04:19:39.376Z,30.00
2024-04-14T04:20:29.380Z,29.35
2024-04-14T04:21:19.471Z,33.61
2024-04-14T04:22:09.530Z,30.39
2024-04-14T04:22:59.570Z,32.49
2024-04-14T04:23:49.624Z,31.46
2024-04-14T04:24:39.727Z,32.30
2024-04-14T04:25:29.756Z,30.13
2024-04-14T04:26:19.832Z,29.82
2024-04-14T04:27:09.896Z,27.46
2024-04-14T04:27:59.973Z,31.99
2024-04-14T04:28:49.985Z,29.88
2024-04-14T04:29:40.036Z,31.59
2024-04-14T04:30:30.089Z,30.05
2024-04-14T04:31:20.131Z,31.82
2024-04-14T04:32:10.186Z,33.19
2024-04-14T04:33:00.288Z,29.31
2024-04-14T04:33:50.352Z,32.06
2024-04-14T04:34:40.371Z,30.82
2024-04-14T04:35:30.403Z,32.70
2024-04-14T04:36:20.438Z,31.70
2024-04-14T04:37:10.510Z,32.13
2024-04-14T04:38:00.557Z,26.57
2024-04-14T04:38:50.574Z,30.18
2024-04-14T04:39:40.673Z,36.11
2024-04-14T04:40:30.693Z,34.61
2024-04-14T04:41:20.779Z,29.00
2024-04-14T04:42:10.834Z,29.84
2024-04-14T04:43:00.937Z,34.39
2024-04-14T04:43:50.911Z,29.09
2024-04-14T04:44:40.951Z,37.28
2024-04-14T04:45:31.022Z,31.05
2024-04-14T04:46:21.039Z,31.98
2024-04-14T04:47:11.133Z,27.73
2024-04-14T04:48:01.222Z,25.85
2024-04-14T04:48:51.323Z,30.36
2024-04-14T04:49:41.299Z,28.08
2024-04-14T04:50:31.340Z,28.31
2024-04-14T04:51:21.377Z,29.40
2024-04-14T04:52:11.446Z,26.81
2024-04-14T04:53:01.506Z,27.05
2024-04-14T04:53:51.554Z,27.18
2024-04-14T04:54:41.638Z,26.84
2024-04-14T04:55:31.655Z,28.49
2024-04-14T04:56:21.736Z,26.87
2024-04-14T04:57:11.809Z,32.54
2024-04-14T04:58:01.879Z,25.30
2024-04-14T04:58:51.883Z,27.37
2024-04-14T04:59:42.144Z,27.41
2024-04-14T05:00:32.232Z,25.00
2024-04-14T05:01:22.364Z,32.99
2024-04-14T05:02:12.612Z,31.85
2024-04-14T05:03:02.662Z,28.10
2024-04-14T05:03:52.726Z,26.75
2024-04-14T05:04:42.743Z,28.44
2024-04-14T05:05:32.777Z,26.53
2024-04-14T05:06:22.833Z,27.33
2024-04-14T05:07:12.923Z,27.26
2024-04-14T05:08:02.919Z,28.20
2024-04-14T05:08:52.992Z,31.95
2024-04-14T05:09:43.088Z,29.22
2024-04-14T05:10:33.148Z,30.27
2024-04-14T05:11:23.501Z,27.70
2024-04-14T05:12:13.545Z,29.18
2024-04-14T05:13:03.629Z,27.30
2024-04-14T05:13:53.629Z,27.87
2024-04-14T05:14:43.676Z,33.08
2024-04-14T05:15:33.771Z,33.25
2024-04-14T05:16:23.776Z,30.22
2024-04-14T05:17:13.844Z,32.14
2024-04-14T05:18:05.065Z,28.67
2024-04-14T05:18:54.121Z,27.35
2024-04-14T05:19:45.991Z,28.66
2024-04-14T05:20:34.137Z,33.83
2024-04-14T05:21:24.235Z,32.45
2024-04-14T05:22:14.276Z,27.99
2024-04-14T05:23:04.304Z,27.05
2024-04-14T05:23:54.468Z,31.53
2024-04-14T05:24:44.579Z,25.50
2024-04-14T05:25:34.611Z,36.38
2024-04-14T05:26:24.608Z,29.63
2024-04-14T05:27:14.663Z,33.72
2024-04-14T05:28:04.742Z,31.06
2024-04-14T05:28:54.759Z,29.75
2024-04-14T05:29:44.835Z,33.14
2024-04-14T05:30:34.866Z,27.64
2024-04-14T05:31:24.909Z,27.94
2024-04-14T05:32:15.003Z,28.21
2024-04-14T05:33:05.041Z,27.30
2024-04-14T05:33:55.118Z,25.82
2024-04-14T05:34:45.145Z,31.44
2024-04-14T05:35:35.183Z,29.18
2024-04-14T05:36:25.326Z,25.00
2024-04-14T05:37:15.345Z,25.00
2024-04-14T05:38:05.414Z,28.66
2024-04-14T05:38:55.420Z,29.99
2024-04-14T05:39:45.557Z,30.14
2024-04-14T05:40:35.539Z,30.41
2024-04-14T05:41:25.602Z,30.40
2024-04-14T05:42:15.726Z,26.50
2024-04-14T05:43:05.766Z,30.32
2024-04-14T05:43:55.782Z,27.11
2024-04-14T05:44:45.820Z,27.47
2024-04-14T05:45:35.939Z,33.93
2024-04-14T05:46:26.937Z,32.90
2024-04-14T05:47:15.954Z,32.31
2024-04-14T05:48:06.139Z,28.31
2024-04-14T05:49:17.245Z,28.66
2024-04-14T05:49:47.175Z,28.83
2024-04-14T05:50:36.149Z,29.78
2024-04-14T05:51:26.191Z,30.62
2024-04-14T05:52:16.296Z,31.03
2024-04-14T05:53:06.330Z,34.16
2024-04-14T05:53:56.447Z,32.00
2024-04-14T05:54:46.528Z,30.19
2024-04-14T05:55:36.690Z,31.37
2024-04-14T05:56:26.694Z,31.71
2024-04-14T05:57:16.764Z,25.00
2024-04-14T05:58:06.814Z,30.03
2024-04-14T05:58:56.825Z,31.31
2024-04-14T05:59:46.898Z,29.52
2024-04-14T06:00:37.049Z,32.88
2024-04-14T06:01:27.067Z,29.92
2024-04-14T06:02:17.075Z,30.45
2024-04-14T06:03:07.224Z,31.74
2024-04-14T06:03:57.217Z,30.36
2024-04-14T06:04:47.410Z,26.70
2024-04-14T06:05:37.308Z,36.64
2024-04-14T06:06:27.344Z,32.60
2024-04-14T06:07:17.398Z,27.66
2024-04-14T06:08:07.440Z,32.12
2024-04-14T06:08:57.679Z,27.73
2024-04-14T06:09:47.803Z,28.86
2024-04-14T06:10:37.742Z,25.00
2024-04-14T06:11:27.830Z,32.01
2024-04-14T06:12:17.919Z,32.57
2024-04-14T06:13:07.985Z,25.82
2024-04-14T06:13:58.090Z,27.82
2024-04-14T06:14:48.056Z,33.77
2024-04-14T06:15:38.293Z,32.35
2024-04-14T06:16:28.274Z,31.46
2024-04-14T06:17:18.283Z,33.33
2024-04-14T06:18:08.772Z,32.30
2024-04-14T06:18:58.642Z,31.50
2024-04-14T06:19:48.647Z,29.61
2024-04-14T06:20:38.750Z,29.80
2024-04-14T06:21:28.799Z,30.37
2024-04-14T06:22:18.939Z,30.58
2024-04-14T06:23:08.920Z,31.59
2024-04-14T06:23:59.047Z,34.13
2024-04-14T06:24:49.041Z,31.15
2024-04-14T06:25:39.110Z,31.58
2024-04-14T06:26:29.148Z,27.39
2024-04-14T06:27:19.484Z,30.82
2024-04-14T06:28:09.510Z,25.00
2024-04-14T06:28:59.611Z,30.11
2024-04-14T06:29:49.599Z,31.89
2024-04-14T06:30:39.659Z,29.79
2024-04-14T06:31:29.693Z,25.31
2024-04-14T06:32:19.849Z,32.36
2024-04-14T06:33:09.930Z,42.70
2024-04-14T06:33:59.992Z,49.79
2024-04-14T06:34:49.928Z,57.48
2024-04-14T06:35:40.137Z,55.65
2024-04-14T06:36:30.306Z,53.19
2024-04-14T06:37:20.482Z,43.51
2024-04-14T06:38:10.400Z,36.96
2024-04-14T06:39:00.487Z,40.69
2024-04-14T06:39:50.502Z,34.03
2024-04-14T06:40:40.654Z,32.92
2024-04-14T06:41:30.581Z,31.13
2024-04-14T06:42:20.711Z,30.86
2024-04-14T06:43:10.766Z,26.07
2024-04-14T06:44:00.851Z,29.79
2024-04-14T06:44:50.854Z,28.97
2024-04-14T06:45:40.988Z,32.41
2024-04-14T06:46:30.942Z,25.00
2024-04-14T06:47:21.178Z,29.68
2024-04-14T06:48:11.130Z,28.99
2024-04-14T06:49:01.311Z,37.28
2024-04-14T06:49:51.254Z,31.58
2024-04-14T06:50:41.318Z,30.41
2024-04-14T06:51:31.374Z,33.07
2024-04-14T06:52:21.515Z,36.46
2024-04-14T06:53:11.463Z,31.12
2024-04-14T06:54:01.513Z,33.19
2024-04-14T06:54:51.593Z,35.75
2024-04-14T06:55:41.679Z,32.72
2024-04-14T06:56:31.792Z,34.30
2024-04-14T06:57:21.962Z,32.00
2024-04-14T06:58:11.893Z,28.17
2024-04-14T06:59:04.434Z,30.40
2024-04-14T06:59:52.290Z,33.22
2024-04-14T07:00:44.010Z,30.63
2024-04-14T07:01:32.483Z,29.07
2024-04-14T07:02:22.537Z,33.01
2024-04-14T07:03:12.517Z,33.30
2024-04-14T07:04:02.720Z,33.41
2024-04-14T07:04:52.690Z,33.28
2024-04-14T07:05:42.768Z,33.52
2024-04-14T07:06:32.753Z,30.39
2024-04-14T07:07:22.943Z,30.19
2024-04-14T07:08:12.897Z,25.00
2024-04-14T07:09:02.957Z,31.58
2024-04-14T07:09:53.305Z,33.87
2024-04-14T07:10:43.419Z,30.72
2024-04-14T07:11:33.371Z,30.53
2024-04-14T07:12:23.535Z,28.15
2024-04-14T07:13:13.451Z,34.34
2024-04-14T07:14:03.520Z,28.90
2024-04-14T07:14:53.555Z,30.81
2024-04-14T07:15:43.687Z,29.92
2024-04-14T07:16:33.736Z,25.06
2024-04-14T07:17:23.851Z,26.90
2024-04-14T07:18:13.922Z,42.97
2024-04-14T07:19:04.042Z,46.86
2024-04-14T07:19:53.923Z,38.01
2024-04-14T07:20:44.117Z,37.78
2024-04-14T07:21:34.066Z,33.06
2024-04-14T07:22:24.183Z,37.04
2024-04-14T07:23:14.255Z,32.47
2024-04-14T07:24:04.396Z,30.26
2024-04-14T07:24:54.381Z,27.45
2024-04-14T07:25:44.471Z,30.88
2024-04-14T07:26:34.443Z,31.53
2024-04-14T07:27:24.522Z,28.44
2024-04-14T07:28:14.540Z,28.35
2024-04-14T07:29:04.663Z,30.75
2024-04-14T07:29:54.678Z,28.24
2024-04-14T07:30:44.971Z,29.86
2024-04-14T07:31:34.786Z,29.66
2024-04-14T07:32:25.042Z,29.89
2024-04-14T07:33:15.018Z,29.74
2024-04-14T07:34:05.198Z,27.51
2024-04-14T07:34:55.017Z,30.89
2024-04-14T07:35:45.154Z,29.98
2024-04-14T07:36:35.327Z,32.16
2024-04-14T07:37:25.413Z,27.92
2024-04-14T07:38:15.410Z,28.70
2024-04-14T07:39:05.536Z,26.91
2024-04-14T07:39:55.499Z,27.02
2024-04-14T07:40:45.586Z,29.44
2024-04-14T07:41:35.570Z,26.90
2024-04-14T07:42:25.787Z,28.64
2024-04-14T07:43:15.761Z,32.74
2024-04-14T07:44:05.889Z,31.53
2024-04-14T07:44:55.876Z,25.02
2024-04-14T07:45:45.938Z,27.55
2024-04-14T07:46:35.950Z,35.12
2024-04-14T07:47:26.169Z,26.93
2024-04-14T07:48:16.262Z,32.26
2024-04-14T07:49:06.326Z,29.24
2024-04-14T07:49:56.216Z,26.73
2024-04-14T07:50:46.294Z,28.88
2024-04-14T07:51:36.325Z,27.48
2024-04-14T07:52:26.448Z,29.68
2024-04-14T07:53:16.413Z,27.87
2024-04-14T07:54:06.558Z,33.90
2024-04-14T07:54:56.589Z,28.70
2024-04-14T07:55:46.611Z,33.33
2024-04-14T07:56:36.698Z,33.29
2024-04-14T07:57:26.815Z,31.24
2024-04-14T07:58:16.796Z,28.68
2024-04-14T07:59:07.014Z,34.45
2024-04-14T07:59:56.892Z,39.01
2024-04-14T08:00:47.153Z,44.51
2024-04-14T08:01:37.013Z,35.74
2024-04-14T08:02:27.132Z,44.11
2024-04-14T08:03:17.286Z,43.85
2024-04-14T08:04:07.486Z,33.84
2024-04-14T08:04:57.394Z,34.11
2024-04-14T08:05:47.400Z,28.08
2024-04-14T08:06:37.466Z,35.57
2024-04-14T08:07:27.592Z,34.10
2024-04-14T08:08:17.568Z,28.03
2024-04-14T08:09:07.691Z,26.78
2024-04-14T08:09:57.717Z,25.00
2024-04-14T08:10:47.903Z,29.84
2024-04-14T08:11:37.839Z,30.71
2024-04-14T08:12:27.952Z,36.29
2024-04-14T08:13:17.953Z,33.63
2024-04-14T08:14:08.037Z,34.15
2024-04-14T08:14:58.020Z,44.94
2024-04-14T08:15:48.159Z,37.32
2024-04-14T08:16:38.165Z,38.77
2024-04-14T08:17:28.268Z,45.95
2024-04-14T08:18:18.341Z,39.09
2024-04-14T08:19:08.700Z,37.28
2024-04-14T08:19:58.665Z,45.03
2024-04-14T08:20:48.834Z,44.79
2024-04-14T08:21:38.822Z,42.75
2024-04-14T08:22:28.907Z,49.53
2024-04-14T08:23:18.875Z,46.77
2024-04-14T08:24:08.937Z,46.21
2024-04-14T08:24:58.995Z,44.67
2024-04-14T08:25:49.077Z,48.51
2024-04-14T08:26:39.095Z,45.85
2024-04-14T08:27:29.189Z,42.68
2024-04-14T08:28:19.173Z,50.83
2024-04-14T08:29:09.275Z,52.45
2024-04-14T08:29:59.247Z,53.10
2024-04-14T08:30:49.532Z,48.57
2024-04-14T08:31:39.419Z,44.98
2024-04-14T08:32:29.555Z,48.23
2024-04-14T08:33:19.547Z,38.17
2024-04-14T08:34:09.762Z,44.95
2024-04-14T08:34:59.601Z,39.75
2024-04-14T08:35:49.678Z,36.39
2024-04-14T08:36:39.702Z,42.20
2024-04-14T08:37:29.847Z,40.37
2024-04-14T08:38:19.875Z,31.99
2024-04-14T08:39:09.969Z,34.61
2024-04-14T08:40:00.083Z,30.58
2024-04-14T08:40:50.003Z,30.20
2024-04-14T08:41:40.033Z,30.97
2024-04-14T08:42:30.191Z,36.14
2024-04-14T08:43:20.196Z,33.44
2024-04-14T08:44:10.297Z,33.51
2024-04-14T08:45:00.247Z,31.63
2024-04-14T08:45:50.434Z,28.23
2024-04-14T08:46:40.466Z,30.58
2024-04-14T08:47:30.489Z,26.42
2024-04-14T08:48:20.552Z,26.44
2024-04-14T08:49:10.735Z,25.80
2024-04-14T08:50:00.645Z,33.49
2024-04-14T08:50:50.794Z,25.00
2024-04-14T08:51:40.859Z,28.70
2024-04-14T08:52:30.869Z,26.81
2024-04-14T08:53:20.896Z,44.20
2024-04-14T08:54:10.987Z,34.90
2024-04-14T08:55:01.079Z,40.84
2024-04-14T08:55:51.139Z,41.19
2024-04-14T08:56:41.121Z,42.19
2024-04-14T08:57:31.365Z,43.41
2024-04-14T08:58:21.260Z,43.92
2024-04-14T08:59:11.332Z,41.80
2024-04-14T09:00:01.384Z,34.81
2024-04-14T09:00:51.524Z,34.66
2024-04-14T09:01:41.539Z,28.14
2024-04-14T09:02:31.746Z,25.99
2024-04-14T09:03:21.653Z,35.28
2024-04-14T09:04:11.847Z,32.47
2024-04-14T09:05:01.740Z,29.17
2024-04-14T09:05:51.819Z,27.49
2024-04-14T09:06:42.044Z,27.03
2024-04-14T09:07:32.097Z,25.15
2024-04-14T09:08:22.124Z,28.73
2024-04-14T09:09:12.221Z,32.39
2024-04-14T09:10:02.325Z,29.16
2024-04-14T09:10:52.285Z,26.63
2024-04-14T09:11:42.292Z,26.82
2024-04-14T09:12:32.462Z,27.50
2024-04-14T09:13:22.404Z,28.86
2024-04-14T09:14:12.514Z,27.15
2024-04-14T09:15:02.507Z,32.33
2024-04-14T09:15:52.651Z,38.06
2024-04-14T09:16:42.716Z,37.46
2024-04-14T09:17:32.805Z,37.85
2024-04-14T09:18:22.980Z,31.50
2024-04-14T09:19:13.036Z,35.21
2024-04-14T09:20:03.067Z,29.10
2024-04-14T09:20:53.175Z,31.88
2024-04-14T09:21:43.211Z,31.41
2024-04-14T09:22:33.356Z,47.66
2024-04-14T09:23:23.301Z,47.79
2024-04-14T09:24:13.361Z,42.26
2024-04-14T09:25:03.447Z,40.92
2024-04-14T09:25:53.508Z,45.12
2024-04-14T09:26:43.499Z,39.43
2024-04-14T09:27:33.601Z,40.35
2024-04-14T09:28:23.615Z,43.13
2024-04-14T09:29:13.725Z,40.95
2024-04-14T09:30:03.708Z,32.06
2024-04-14T09:30:53.887Z,35.98
2024-04-14T09:31:43.827Z,42.47
2024-04-14T09:32:33.987Z,34.75
2024-04-14T09:33:23.921Z,37.24
2024-04-14T09:34:14.148Z,43.85
2024-04-14T09:35:04.040Z,33.61
2024-04-14T09:35:54.085Z,38.16
2024-04-14T09:36:44.127Z,41.28
2024-04-14T09:37:34.278Z,45.45
2024-04-14T09:38:24.442Z,48.73
2024-04-14T09:39:14.491Z,46.04
2024-04-14T09:40:04.668Z,41.90
2024-04-14T09:40:54.639Z,45.02
2024-04-14T09:41:44.631Z,41.39
2024-04-14T09:42:34.774Z,34.79
2024-04-14T09:43:24.704Z,37.35
2024-04-14T09:44:14.830Z,31.80
2024-04-14T09:45:04.876Z,37.23
2024-04-14T09:45:55.001Z,33.72
2024-04-14T09:46:44.975Z,34.94
2024-04-14T09:47:35.092Z,29.06
2024-04-14T09:48:25.071Z,26.73
2024-04-14T09:49:15.199Z,25.50
2024-04-14T09:50:05.223Z,25.00
2024-04-14T09:50:55.342Z,30.14
2024-04-14T09:51:45.416Z,36.81
2024-04-14T09:52:35.498Z,33.87
2024-04-14T09:53:25.520Z,32.90
2024-04-14T09:54:15.625Z,30.71
2024-04-14T09:55:05.746Z,32.18
2024-04-14T09:55:55.665Z,26.99
2024-04-14T09:56:45.727Z,27.76
2024-04-14T09:57:35.866Z,32.40
2024-04-14T09:58:25.848Z,28.44
2024-04-14T09:59:15.984Z,33.94
2024-04-14T10:00:05.941Z,32.90
2024-04-14T10:00:56.047Z,30.25
2024-04-14T10:01:46.133Z,34.34
2024-04-14T10:02:36.229Z,31.18
2024-04-14T10:03:26.158Z,26.97
2024-04-14T10:04:16.433Z,28.17
2024-04-14T10:05:06.304Z,26.14
2024-04-14T10:05:56.344Z,26.59
2024-04-14T10:06:46.426Z,31.86
2024-04-14T10:07:36.527Z,34.75
2024-04-14T10:08:26.482Z,40.56
2024-04-14T10:09:16.551Z,37.01
2024-04-14T10:10:06.615Z,26.27
2024-04-14T10:10:56.745Z,35.40
2024-04-14T10:11:46.852Z,37.75
2024-04-14T10:12:36.983Z,34.47
2024-04-14T10:13:26.926Z,31.23
2024-04-14T10:14:16.987Z,33.33
2024-04-14T10:15:09.071Z,34.31
2024-04-14T10:15:57.152Z,44.00
2024-04-14T10:16:47.183Z,37.80
2024-04-14T10:17:37.362Z,31.49
2024-04-14T10:18:27.319Z,28.87
2024-04-14T10:19:17.437Z,30.12
2024-04-14T10:20:07.432Z,32.64
2024-04-14T10:20:57.481Z,29.38
2024-04-14T10:21:47.556Z,34.27
2024-04-14T10:22:37.635Z,31.95
2024-04-14T10:23:27.645Z,32.72
2024-04-14T10:24:17.782Z,34.15
2024-04-14T10:25:07.850Z,33.30
2024-04-14T10:25:57.846Z,39.22
2024-04-14T10:26:47.863Z,42.98
2024-04-14T10:27:37.991Z,42.93
2024-04-14T10:28:28.024Z,49.61
2024-04-14T10:29:18.123Z,51.27
2024-04-14T10:30:08.082Z,46.83
2024-04-14T10:30:58.218Z,51.99
2024-04-14T10:31:48.202Z,49.66
2024-04-14T10:32:38.343Z,51.54
2024-04-14T10:33:28.426Z,51.97
2024-04-14T10:34:18.567Z,57.97
2024-04-14T10:35:08.443Z,52.39
2024-04-14T10:35:58.520Z,46.68
2024-04-14T10:36:48.595Z,43.28
2024-04-14T10:37:38.765Z,36.93
2024-04-14T10:38:28.749Z,34.48
2024-04-14T10:39:18.825Z,40.64
2024-04-14T10:40:08.896Z,40.04
2024-04-14T10:40:58.956Z,36.65
2024-04-14T10:41:48.953Z,34.55
2024-04-14T10:42:39.122Z,36.64
2024-04-14T10:43:29.082Z,42.24
2024-04-14T10:44:19.377Z,44.33